Pagrindinis puslapis
METAR-TAF:

METAR-TAF

Oro uostai :

Savanaketas, Laosas

platuma: 16-33-24N, ilguma: 104-45-34E, Aukštis: 155 m

Dabartinis oras

Ataskaita buvo paskelbta 10 valandos ir 54 minutes, ne 12:00 UTC
Vėjas 6 kt iš Šiaurės Rytų
Temperatūra 22°C
Drėgmė 65%
Slėgis 1017 hPa
Matomumas: 5000 m
Išsisklaidę debesys ne aukštis 4000 ft
Išsisklaidę debesys ne aukštis 10000 ft
rūkana

METAR: VLSK 291200Z 04006KT 5000 BR SCT040 SCT100 22/15 Q1017 NOSIG

Laikas: 05:54 (22:54 UTC)

Prognozė

Ataskaita buvo paskelbta 11 valandos ir 54 minutes, ne 11:00 UTC
Prognozė galioja nuo 29 metu 12 UTC su 30 metu 12 UTC
Vėjas 4 kt iš Šiaurės Rytų
Matomumas: 8000 m
Išsisklaidę debesys ne aukštis 2000 ft
Išsisklaidę debesys ne aukštis 10000 ft
Laikinai
nuo 29 metu 14 UTC su 29 metu 20 UTC
Matomumas: 3000 m
Išsisklaidę debesys ne aukštis 4000 ft
Išsisklaidę debesys ne aukštis 10000 ft
rūkana

TAF: VLSK 291100Z 2912/3012 04004KT 8000 SCT020 SCT100 TEMPO 2914/2920 3000 BR SCT040 SCT100

Orai ataskaitas ir orų prognozės (METAR, TAF).

turimą stotys yra geltonos ir raudonos taškus žemėlapyje.

Perkelti pele per norėdami pamatyti stoties vardą.

Tada spustelėkite, norėdami matyti oro stebėjimo ir prognozės.

Norėdami pakeisti žemėlapį: spustelėkite ant žalios mygtukų su juodo kryžiaus žemyn,; žalią mygtuką su brūkšneliu, jei norite nutolinti; arba žalių rodyklių gretimoms žemėlapius.


METAR-TAF: